createdAt,value
2023-04-11T00:03:33.010Z,99900.22
2023-04-11T00:08:34.647Z,99886.59
2023-04-11T00:13:37.312Z,99883.81
2023-04-11T00:18:39.371Z,99876.66
2023-04-11T00:23:41.077Z,99924.56
2023-04-11T00:28:42.619Z,99919.06
2023-04-11T00:33:44.603Z,99897.31
2023-04-11T00:38:46.371Z,99898.00
2023-04-11T00:43:49.713Z,99910.25
2023-04-11T00:48:51.671Z,99919.56
2023-04-11T00:53:54.583Z,99946.06
2023-04-11T00:58:57.064Z,99973.19
2023-04-11T01:04:01.128Z,100008.97
2023-04-11T01:09:04.966Z,100000.88
2023-04-11T01:14:06.712Z,100040.41
2023-04-11T01:19:08.279Z,100038.00
2023-04-11T01:24:09.848Z,100032.41
2023-04-11T01:29:11.443Z,99996.91
2023-04-11T01:34:14.961Z,100014.47
2023-04-11T01:39:16.564Z,99991.38
2023-04-11T01:44:19.352Z,100004.50
2023-04-11T01:49:21.590Z,99998.31
2023-04-11T01:54:23.152Z,100002.25
2023-04-11T01:59:24.656Z,100034.09
2023-04-11T02:04:26.294Z,100022.66
2023-04-11T02:09:27.809Z,100030.84
2023-04-11T02:14:40.560Z,100024.34
2023-04-11T02:19:42.161Z,100005.03
2023-04-11T02:24:43.740Z,100017.81
2023-04-11T02:29:45.376Z,100007.09
2023-04-11T02:34:46.932Z,100011.13
2023-04-11T02:39:48.445Z,100009.69
2023-04-11T02:44:49.967Z,100013.88
2023-04-11T02:49:53.848Z,100035.31
2023-04-11T02:55:01.152Z,100019.78
2023-04-11T03:00:07.017Z,100046.75
2023-04-11T03:05:17.873Z,100046.09
2023-04-11T03:10:23.179Z,100040.41
2023-04-11T03:15:25.228Z,100059.28
2023-04-11T03:20:26.805Z,100075.25
2023-04-11T03:25:28.872Z,100075.84
2023-04-11T03:30:30.527Z,100088.91
2023-04-11T03:35:32.355Z,100082.34
2023-04-11T03:40:35.007Z,100080.09
2023-04-11T03:45:53.345Z,100086.59
2023-04-11T03:51:07.995Z,100080.13
2023-04-11T03:56:38.797Z,100085.97
2023-04-11T04:01:43.230Z,100081.38
2023-04-11T04:06:45.989Z,100092.91
2023-04-11T04:11:48.223Z,100095.41
2023-04-11T04:16:52.201Z,100116.00
2023-04-11T04:21:58.082Z,100115.13
2023-04-11T04:27:03.764Z,100109.72
2023-04-11T04:32:21.026Z,100097.41
2023-04-11T04:37:25.040Z,100090.16
2023-04-11T04:42:36.404Z,100106.41
2023-04-11T04:47:40.254Z,100133.75
2023-04-11T04:52:42.330Z,100164.19
2023-04-11T04:57:44.332Z,100151.38
2023-04-11T05:02:47.837Z,100157.47
2023-04-11T05:07:50.172Z,100168.38
2023-04-11T05:12:53.500Z,100167.53
2023-04-11T05:17:55.292Z,100192.94
2023-04-11T05:22:56.917Z,100201.16
2023-04-11T05:27:58.563Z,100196.38
2023-04-11T05:33:01.899Z,100203.78
2023-04-11T05:38:03.651Z,100202.75
2023-04-11T05:43:05.522Z,100229.56
2023-04-11T05:48:10.841Z,100233.13
2023-04-11T05:53:13.080Z,100225.56
2023-04-11T05:58:15.013Z,100225.34
2023-04-11T06:03:17.642Z,100238.09
2023-04-11T06:08:21.483Z,100274.19
2023-04-11T06:13:23.342Z,100256.31
2023-04-11T06:18:24.910Z,100267.00
2023-04-11T06:23:26.451Z,100257.91
2023-04-11T06:28:28.086Z,100259.06
2023-04-11T06:33:29.587Z,100276.09
2023-04-11T06:38:31.087Z,100270.38
2023-04-11T06:43:32.574Z,100288.06
2023-04-11T06:48:34.442Z,100288.38
2023-04-11T06:53:36.803Z,100276.72
2023-04-11T06:58:38.489Z,100287.53
2023-04-11T07:03:40.547Z,100301.28
2023-04-11T07:08:43.696Z,100306.81
2023-04-11T07:13:45.247Z,100304.47
2023-04-11T07:18:50.996Z,100317.56
2023-04-11T07:23:53.362Z,100311.81
2023-04-11T07:28:55.098Z,100309.81
2023-04-11T07:33:57.039Z,100304.09
2023-04-11T07:38:59.881Z,100310.06
2023-04-11T07:44:01.545Z,100299.56
2023-04-11T07:49:03.204Z,100305.94
2023-04-11T07:54:04.776Z,100293.03
2023-04-11T07:59:06.496Z,100294.84
2023-04-11T08:04:08.189Z,100272.38
2023-04-11T08:09:10.919Z,100281.06
2023-04-11T08:14:14.786Z,100287.09
2023-04-11T08:19:17.120Z,100285.44
2023-04-11T08:24:18.916Z,100268.41
2023-04-11T08:29:20.457Z,100273.75
2023-04-11T08:34:22.022Z,100286.91
2023-04-11T08:39:23.536Z,100289.97
2023-04-11T08:44:25.199Z,100288.84
2023-04-11T08:49:26.685Z,100299.94
2023-04-11T08:54:28.178Z,100288.91
2023-04-11T08:59:33.928Z,100294.84
2023-04-11T09:04:43.058Z,100299.25
2023-04-11T09:09:45.426Z,100292.25
2023-04-11T09:14:46.959Z,100297.22
2023-04-11T09:19:49.514Z,100295.94
2023-04-11T09:25:02.639Z,100284.84
2023-04-11T09:30:05.878Z,100282.84
2023-04-11T09:35:11.349Z,100277.84
2023-04-11T09:40:14.925Z,100278.63
2023-04-11T09:45:21.121Z,100269.91
2023-04-11T09:50:23.962Z,100251.38
2023-04-11T09:55:26.136Z,100275.13
2023-04-11T10:00:32.474Z,100289.06
2023-04-11T10:05:34.159Z,100298.19
2023-04-11T10:10:36.097Z,100311.31
2023-04-11T10:15:37.725Z,100282.53
2023-04-11T10:20:48.176Z,100264.28
2023-04-11T10:25:55.444Z,100249.91
2023-04-11T10:31:13.032Z,100266.31
2023-04-11T10:36:14.667Z,100272.06
2023-04-11T10:41:28.605Z,100275.91
2023-04-11T10:46:30.301Z,100268.38
2023-04-11T10:51:33.807Z,100279.38
2023-04-11T10:56:45.494Z,100261.13
2023-04-11T11:01:54.877Z,100281.06
2023-04-11T11:06:57.915Z,100294.94
2023-04-11T11:12:05.605Z,100276.53
2023-04-11T11:17:07.949Z,100281.06
2023-04-11T11:22:25.583Z,100289.59
2023-04-11T11:27:33.107Z,100280.91
2023-04-11T11:32:38.997Z,100270.59
2023-04-11T11:37:40.807Z,100276.53
2023-04-11T11:42:42.457Z,100272.53
2023-04-11T11:47:45.694Z,100285.47
2023-04-11T11:52:48.777Z,100295.06
2023-04-11T11:57:50.851Z,100291.41
2023-04-11T12:02:54.205Z,100282.19
2023-04-11T12:07:58.588Z,100281.78
2023-04-11T12:13:00.290Z,100294.50
2023-04-11T12:18:05.621Z,100274.81
2023-04-11T12:23:07.202Z,100277.00
2023-04-11T12:28:09.814Z,100277.03
2023-04-11T12:33:14.954Z,100268.69
2023-04-11T12:38:17.956Z,100278.16
2023-04-11T12:43:19.906Z,100281.88
2023-04-11T12:48:21.519Z,100283.94
2023-04-11T12:53:23.495Z,100270.78
2023-04-11T12:58:26.396Z,100280.75
2023-04-11T13:03:29.161Z,100271.38
2023-04-11T13:08:30.997Z,100264.50
2023-04-11T13:20:44.887Z,100254.03
2023-04-11T13:25:46.356Z,100246.53
2023-04-11T13:30:47.857Z,100256.66
2023-04-11T13:35:53.149Z,100251.16
2023-04-11T13:40:55.544Z,100256.75
2023-04-11T13:46:05.198Z,100240.59
2023-04-11T13:51:07.098Z,100240.72
2023-04-11T13:56:08.755Z,100249.16
2023-04-11T14:01:10.726Z,100248.22
2023-04-11T14:06:12.457Z,100244.13
2023-04-11T14:11:14.453Z,100243.50
2023-04-11T14:16:16.446Z,100241.81
2023-04-11T14:22:20.195Z,100231.41
2023-04-11T14:27:21.898Z,100236.75
2023-04-11T14:32:23.419Z,100234.25
2023-04-11T14:37:24.899Z,100227.56
2023-04-11T14:42:26.588Z,100230.50
2023-04-11T14:47:28.682Z,100227.97
2023-04-11T14:52:30.249Z,100213.16
2023-04-11T14:57:46.975Z,100208.38
2023-04-11T15:02:53.779Z,100209.03
2023-04-11T15:07:55.647Z,100201.03
2023-04-11T15:12:57.132Z,100198.31
2023-04-11T15:18:18.430Z,100193.41
2023-04-11T15:23:20.702Z,100196.00
2023-04-11T15:28:23.568Z,100187.88
2023-04-11T15:33:25.943Z,100188.16
2023-04-11T15:38:28.610Z,100182.41
2023-04-11T15:43:32.048Z,100180.97
2023-04-11T15:48:33.512Z,100173.91
2023-04-11T15:53:35.238Z,100167.94
2023-04-11T15:58:36.754Z,100167.53
2023-04-11T16:03:38.395Z,100166.06
2023-04-11T16:08:40.063Z,100169.59
2023-04-11T16:13:44.003Z,100170.16
2023-04-11T16:18:45.603Z,100154.72
2023-04-11T16:23:47.114Z,100150.25
2023-04-11T16:28:48.980Z,100142.47
2023-04-11T16:33:52.230Z,100150.84
2023-04-11T16:38:53.773Z,100145.22
2023-04-11T16:43:55.982Z,100145.13
2023-04-11T16:48:59.310Z,100133.81
2023-04-11T16:54:02.256Z,100143.66
2023-04-11T16:59:05.104Z,100135.03
2023-04-11T17:04:06.989Z,100133.38
2023-04-11T17:09:08.911Z,100129.00
2023-04-11T17:14:10.439Z,100127.97
2023-04-11T17:19:12.097Z,100131.28
2023-04-11T17:24:13.603Z,100120.91
2023-04-11T17:29:15.555Z,100116.47
2023-04-11T17:34:17.004Z,100110.03
2023-04-11T17:39:18.666Z,100119.50
2023-04-11T17:44:20.730Z,100121.19
2023-04-11T17:49:22.214Z,100125.19
2023-04-11T17:54:23.770Z,100129.22
2023-04-11T17:59:25.361Z,100121.94
2023-04-11T18:04:26.968Z,100134.38
2023-04-11T18:09:31.786Z,100138.31
2023-04-11T18:14:34.160Z,100138.16
2023-04-11T18:19:36.151Z,100127.91
2023-04-11T18:24:38.093Z,100132.72
2023-04-11T18:29:39.559Z,100146.84
2023-04-11T18:34:41.137Z,100147.06
2023-04-11T18:39:42.646Z,100150.19
2023-04-11T18:44:44.199Z,100148.69
2023-04-11T18:49:45.850Z,100142.34
2023-04-11T18:54:47.318Z,100152.63
2023-04-11T18:59:50.532Z,100158.00
2023-04-11T19:04:55.440Z,100148.44
2023-04-11T19:09:57.198Z,100146.44
2023-04-11T19:14:58.798Z,100142.34
2023-04-11T19:20:02.112Z,100135.03
2023-04-11T19:25:03.789Z,100136.19
2023-04-11T19:30:06.412Z,100131.22
2023-04-11T19:35:10.457Z,100135.91
2023-04-11T19:40:15.177Z,100122.94
2023-04-11T19:45:16.745Z,100113.13
2023-04-11T19:50:18.506Z,100102.28
2023-04-11T19:55:20.069Z,100102.34
2023-04-11T20:00:21.552Z,100088.72
2023-04-11T20:05:23.798Z,100090.84
2023-04-11T20:10:28.387Z,100073.84
2023-04-11T20:15:30.939Z,100072.81
2023-04-11T20:20:33.669Z,100069.56
2023-04-11T20:25:35.493Z,100051.88
2023-04-11T20:30:40.122Z,100050.63
2023-04-11T20:35:41.605Z,100037.59
2023-04-11T20:40:43.152Z,100035.50
2023-04-11T20:45:47.682Z,100026.16
2023-04-11T20:50:49.280Z,100015.84
2023-04-11T20:55:50.846Z,100009.38
2023-04-11T21:00:53.545Z,100004.59
2023-04-11T21:05:55.069Z,99997.84
2023-04-11T21:10:56.521Z,99991.19
2023-04-11T21:15:58.493Z,99989.50
2023-04-11T21:21:00.074Z,99971.84
2023-04-11T21:26:01.578Z,99969.28
2023-04-11T21:31:03.125Z,99955.94
2023-04-11T21:36:05.034Z,99953.31
2023-04-11T21:41:06.967Z,99928.22
2023-04-11T21:46:08.504Z,99921.63
2023-04-11T21:51:10.439Z,99910.88
2023-04-11T21:56:11.962Z,99900.94
2023-04-11T22:01:15.067Z,99896.47
2023-04-11T22:06:19.336Z,99883.75
2023-04-11T22:11:20.799Z,99877.41
2023-04-11T22:16:26.316Z,99866.81
2023-04-11T22:21:28.411Z,99866.59
2023-04-11T22:26:33.971Z,99838.81
2023-04-11T22:31:38.273Z,99845.00
2023-04-11T22:36:40.089Z,99841.13
2023-04-11T22:41:41.580Z,99836.03
2023-04-11T22:46:57.145Z,99822.22
2023-04-11T22:52:02.127Z,99827.69
2023-04-11T22:57:03.668Z,99824.50
2023-04-11T23:02:05.653Z,99819.63
2023-04-11T23:07:07.168Z,99828.28
2023-04-11T23:12:08.967Z,99841.50
2023-04-11T23:17:10.516Z,99839.03
2023-04-11T23:22:12.428Z,99833.34
2023-04-11T23:27:14.056Z,99832.19
2023-04-11T23:32:15.641Z,99833.59
2023-04-11T23:37:17.845Z,99834.78
2023-04-11T23:42:19.286Z,99833.38
2023-04-11T23:47:20.861Z,99831.81
2023-04-11T23:52:22.421Z,99837.03
2023-04-11T23:57:24.787Z,99843.66
